Time;durP1;ratioP1;P1;durP2;ratioP2;P2;SDS_P1;SDS_P2;PMS_P1;PMS_P2;Temp;Humidity;BMP_temperature;BMP_pressure;BME280_temperature;BME280_humidity;BME280_pressure;Samples;Min_cycle;Max_cycle;Signal;HPM_P1;HPM_P2
2022/05/18 00:01:17;;;;;;;6.53;3.47;;;;;;;;;;5052199;28;20658;-84
2022/05/18 00:03:45;;;;;;;4.70;3.50;;;;;;;;;;5051434;28;20230;-84
2022/05/18 00:06:13;;;;;;;3.53;3.00;;;;;;;;;;5051929;28;20202;-84
2022/05/18 00:08:40;;;;;;;4.27;3.00;;;;;;;;;;5051870;28;20581;-84
2022/05/18 00:11:09;;;;;;;6.80;3.80;;;;;;;;;;5052401;28;20202;-84
2022/05/18 00:13:36;;;;;;;4.00;3.60;;;;;;;;;;5051283;28;20234;-84
2022/05/18 00:16:05;;;;;;;5.53;4.03;;;;;;;;;;5054486;28;20201;-84
2022/05/18 00:18:32;;;;;;;4.57;3.50;;;;;;;;;;5055532;28;20605;-84
2022/05/18 00:21:00;;;;;;;5.47;3.10;;;;;;;;;;5055973;28;20775;-85
2022/05/18 00:23:27;;;;;;;4.83;3.00;;;;;;;;;;5055161;28;20603;-84
2022/05/18 00:25:54;;;;;;;4.77;3.57;;;;;;;;;;5055794;28;20643;-84
2022/05/18 00:28:21;;;;;;;4.87;3.07;;;;;;;;;;5055223;28;20241;-84
2022/05/18 00:30:48;;;;;;;6.33;3.67;;;;;;;;;;5055711;28;20202;-84
2022/05/18 00:33:18;;;;;;;4.70;4.03;;;;;;;;;;5054694;28;20611;-84
2022/05/18 00:35:45;;;;;;;4.73;3.67;;;;;;;;;;5055526;28;20578;-84
2022/05/18 00:38:12;;;;;;;6.60;3.53;;;;;;;;;;5054836;28;20249;-84
2022/05/18 00:40:40;;;;;;;3.60;3.30;;;;;;;;;;5055631;28;20213;-84
2022/05/18 00:43:15;;;;;;;4.03;3.33;;;;;;;;;;5054869;28;20198;-84
2022/05/18 00:45:42;;;;;;;3.53;3.20;;;;;;;;;;5055469;28;20224;-84
2022/05/18 00:48:10;;;;;;;4.53;3.27;;;;;;;;;;5054919;28;20261;-84
2022/05/18 00:50:39;;;;;;;5.27;3.80;;;;;;;;;;5055445;28;20228;-84
2022/05/18 00:53:09;;;;;;;7.33;3.70;;;;;;;;;;5054373;28;20210;-84
2022/05/18 00:55:37;;;;;;;5.10;3.40;;;;;;;;;;5055019;28;20207;-84
2022/05/18 00:58:06;;;;;;;6.33;3.47;;;;;;;;;;5054656;28;20234;-84
2022/05/18 01:00:35;;;;;;;11.23;6.03;;;;;;;;;;5055109;28;20206;-84
2022/05/18 01:03:06;;;;;;;3.70;3.13;;;;;;;;;;5054585;28;20202;-84
2022/05/18 01:05:35;;;;;;;3.97;3.57;;;;;;;;;;5044925;28;20195;-84
2022/05/18 01:08:03;;;;;;;6.67;3.27;;;;;;;;;;5045668;28;20728;-84
2022/05/18 01:10:30;;;;;;;3.30;2.90;;;;;;;;;;5055057;28;20213;-84
2022/05/18 01:12:59;;;;;;;5.70;3.13;;;;;;;;;;5054186;28;20230;-84
2022/05/18 01:15:26;;;;;;;3.43;3.13;;;;;;;;;;5054811;28;20213;-83
2022/05/18 01:17:56;;;;;;;3.53;3.23;;;;;;;;;;5054356;28;20597;-83
2022/05/18 01:20:24;;;;;;;3.67;3.37;;;;;;;;;;5055058;28;20294;-84
2022/05/18 01:22:57;;;;;;;4.47;3.63;;;;;;;;;;5055108;28;20206;-84
2022/05/18 01:25:39;;;;;;;3.57;3.13;;;;;;;;;;5054448;28;20693;-84
2022/05/18 01:28:08;;;;;;;3.50;3.20;;;;;;;;;;5054367;28;20265;-84
2022/05/18 01:30:36;;;;;;;3.93;3.30;;;;;;;;;;5054794;28;20202;-84
2022/05/18 01:33:05;;;;;;;6.00;3.87;;;;;;;;;;5054518;28;20229;-84
2022/05/18 01:35:34;;;;;;;6.87;3.63;;;;;;;;;;5054851;28;20202;-84
2022/05/18 01:38:01;;;;;;;4.17;3.77;;;;;;;;;;5053655;28;20596;-84
2022/05/18 01:40:34;;;;;;;3.87;3.33;;;;;;;;;;5054761;28;20217;-84
2022/05/18 01:43:03;;;;;;;4.70;3.40;;;;;;;;;;5054069;28;20634;-83
2022/05/18 01:45:32;;;;;;;3.57;3.27;;;;;;;;;;5054594;28;20684;-84
2022/05/18 01:48:08;;;;;;;5.27;3.33;;;;;;;;;;5053824;28;20233;-84
2022/05/18 01:50:35;;;;;;;3.40;3.07;;;;;;;;;;5054645;28;20190;-84
2022/05/18 01:53:02;;;;;;;4.73;3.27;;;;;;;;;;5053930;28;20232;-84
2022/05/18 01:55:29;;;;;;;5.97;3.17;;;;;;;;;;5054052;28;20791;-84
2022/05/18 01:57:56;;;;;;;6.80;3.60;;;;;;;;;;5053431;28;20605;-83
2022/05/18 02:00:24;;;;;;;7.33;3.37;;;;;;;;;;5054381;28;20210;-84
2022/05/18 02:02:52;;;;;;;3.43;3.13;;;;;;;;;;5054270;28;20570;-84
2022/05/18 02:05:19;;;;;;;6.67;3.53;;;;;;;;;;5053672;28;20219;-83
2022/05/18 02:07:46;;;;;;;3.30;3.00;;;;;;;;;;5054149;28;20249;-83
2022/05/18 02:10:13;;;;;;;4.73;3.10;;;;;;;;;;5053393;28;20273;-84
2022/05/18 02:12:41;;;;;;;3.60;3.30;;;;;;;;;;5053815;28;20210;-84
2022/05/18 02:15:08;;;;;;;5.97;3.57;;;;;;;;;;5053176;28;20237;-83
2022/05/18 02:17:37;;;;;;;3.70;3.40;;;;;;;;;;5054501;28;20256;-83
2022/05/18 02:20:06;;;;;;;8.20;4.23;;;;;;;;;;5053573;28;20233;-83
2022/05/18 02:22:33;;;;;;;3.70;3.30;;;;;;;;;;5054383;28;20206;-83
2022/05/18 02:25:00;;;;;;;5.50;3.47;;;;;;;;;;5065700;28;20237;-83
2022/05/18 02:27:29;;;;;;;5.07;3.33;;;;;;;;;;5078084;28;20221;-84
2022/05/18 02:29:57;;;;;;;4.80;3.40;;;;;;;;;;5068406;28;20226;-83
2022/05/18 02:32:24;;;;;;;4.93;3.50;;;;;;;;;;5056218;28;20202;-83
2022/05/18 02:34:51;;;;;;;5.17;3.73;;;;;;;;;;5055383;28;20717;-84
2022/05/18 02:37:21;;;;;;;4.03;3.60;;;;;;;;;;5054135;28;20198;-83
2022/05/18 02:39:48;;;;;;;4.00;3.70;;;;;;;;;;5054705;28;20244;-83
2022/05/18 02:42:15;;;;;;;4.93;3.53;;;;;;;;;;5054880;28;20202;-84
2022/05/18 02:44:43;;;;;;;5.67;3.13;;;;;;;;;;5053624;28;20606;-84
2022/05/18 02:47:10;;;;;;;3.97;3.43;;;;;;;;;;5053687;28;20209;-84
2022/05/18 02:49:37;;;;;;;4.53;3.50;;;;;;;;;;5052995;28;20241;-84
2022/05/18 02:52:04;;;;;;;3.90;3.40;;;;;;;;;;5053768;28;20573;-83
2022/05/18 02:57:19;;;;;;;4.93;3.53;;;;;;;;;;5053304;28;20186;-84
2022/05/18 02:59:46;;;;;;;4.37;3.13;;;;;;;;;;5053054;28;20245;-84
2022/05/18 03:02:13;;;;;;;5.20;3.53;;;;;;;;;;5063802;28;20186;-84
2022/05/18 03:04:40;;;;;;;4.60;3.50;;;;;;;;;;5056459;28;20234;-83
2022/05/18 03:07:07;;;;;;;3.67;3.37;;;;;;;;;;5054763;28;20202;-83
2022/05/18 03:09:35;;;;;;;6.33;3.70;;;;;;;;;;5052645;28;20242;-83
2022/05/18 03:12:03;;;;;;;8.70;5.10;;;;;;;;;;5052850;28;20212;-83
2022/05/18 03:14:30;;;;;;;8.33;3.70;;;;;;;;;;5059288;28;20293;-83
2022/05/18 03:16:57;;;;;;;7.13;4.83;;;;;;;;;;5052785;28;20193;-83
2022/05/18 03:19:24;;;;;;;3.77;3.47;;;;;;;;;;5052823;28;20237;-83
2022/05/18 03:24:38;;;;;;;6.03;3.50;;;;;;;;;;5052287;28;20232;-84
2022/05/18 03:27:05;;;;;;;7.47;4.10;;;;;;;;;;5052932;28;20209;-83
2022/05/18 03:29:33;;;;;;;6.37;3.87;;;;;;;;;;5052673;28;20237;-83
2022/05/18 03:32:00;;;;;;;4.37;3.63;;;;;;;;;;5052988;28;20297;-83
2022/05/18 03:34:28;;;;;;;6.07;3.70;;;;;;;;;;5052142;28;20242;-82
2022/05/18 03:36:55;;;;;;;4.03;3.73;;;;;;;;;;5052729;28;20210;-82
2022/05/18 03:39:22;;;;;;;4.40;4.00;;;;;;;;;;5052198;28;20248;-82
2022/05/18 03:41:50;;;;;;;5.57;3.87;;;;;;;;;;5053156;28;20229;-83
2022/05/18 03:44:19;;;;;;;5.33;4.30;;;;;;;;;;5052358;28;20234;-82
2022/05/18 03:46:46;;;;;;;4.33;3.80;;;;;;;;;;5052910;28;20293;-82
2022/05/18 03:49:13;;;;;;;6.87;4.63;;;;;;;;;;5052262;28;20238;-83
2022/05/18 03:51:40;;;;;;;5.87;4.40;;;;;;;;;;5056103;28;20217;-83
2022/05/18 03:54:07;;;;;;;6.77;3.90;;;;;;;;;;5058219;28;20234;-83
2022/05/18 03:56:34;;;;;;;4.50;4.10;;;;;;;;;;5071700;28;20214;-83
2022/05/18 03:59:04;;;;;;;5.43;3.60;;;;;;;;;;5070399;28;20301;-83
2022/05/18 04:01:31;;;;;;;4.70;4.13;;;;;;;;;;5056703;28;20206;-83
2022/05/18 04:03:58;;;;;;;5.80;4.30;;;;;;;;;;5036536;28;20253;-83
2022/05/18 04:06:25;;;;;;;3.97;3.67;;;;;;;;;;5035325;28;20203;-83
2022/05/18 04:08:53;;;;;;;5.40;3.43;;;;;;;;;;5035595;28;20241;-83
2022/05/18 04:11:20;;;;;;;5.00;3.97;;;;;;;;;;5036427;28;20338;-83
2022/05/18 04:13:47;;;;;;;4.80;4.10;;;;;;;;;;5035780;28;20230;-84
2022/05/18 04:16:16;;;;;;;4.77;4.30;;;;;;;;;;5036250;28;20217;-84
2022/05/18 04:18:43;;;;;;;4.70;4.10;;;;;;;;;;5035403;28;20234;-84
2022/05/18 04:21:10;;;;;;;4.80;4.23;;;;;;;;;;5036173;28;20214;-85
2022/05/18 04:23:38;;;;;;;5.83;3.83;;;;;;;;;;5035644;28;20222;-84
2022/05/18 04:26:05;;;;;;;5.03;4.00;;;;;;;;;;5036482;28;20238;-83
2022/05/18 04:28:32;;;;;;;10.30;4.47;;;;;;;;;;5036130;28;20293;-82
2022/05/18 04:31:00;;;;;;;8.13;4.30;;;;;;;;;;5037312;28;20671;-82
2022/05/18 04:33:29;;;;;;;5.07;3.63;;;;;;;;;;5036142;28;20603;-83
2022/05/18 04:35:56;;;;;;;4.43;4.03;;;;;;;;;;5037141;28;20215;-83
2022/05/18 04:38:24;;;;;;;6.87;4.47;;;;;;;;;;5036956;28;20293;-84
2022/05/18 04:40:51;;;;;;;5.03;4.13;;;;;;;;;;5036595;28;20215;-83
2022/05/18 04:43:20;;;;;;;4.87;3.77;;;;;;;;;;5034944;28;20234;-83
2022/05/18 04:45:47;;;;;;;7.27;5.10;;;;;;;;;;5031405;28;20214;-83
2022/05/18 04:48:15;;;;;;;6.70;4.23;;;;;;;;;;5018900;28;20243;-83
2022/05/18 04:50:44;;;;;;;10.03;5.20;;;;;;;;;;5035804;28;20275;-83
2022/05/18 04:53:12;;;;;;;7.23;5.50;;;;;;;;;;5034092;28;20254;-83
2022/05/18 04:55:39;;;;;;;5.80;5.10;;;;;;;;;;5030358;28;20227;-83
2022/05/18 04:58:06;;;;;;;10.47;5.03;;;;;;;;;;5034826;28;20262;-82
2022/05/18 05:00:34;;;;;;;5.90;5.07;;;;;;;;;;5029166;28;20619;-83
2022/05/18 05:03:01;;;;;;;8.53;5.53;;;;;;;;;;5035143;28;20203;-82
2022/05/18 05:05:29;;;;;;;7.00;5.00;;;;;;;;;;5023193;28;20212;-84
2022/05/18 05:07:58;;;;;;;9.17;5.67;;;;;;;;;;5032555;28;20632;-83
2022/05/18 05:10:25;;;;;;;8.83;5.67;;;;;;;;;;5035015;28;20206;-83
2022/05/18 05:12:52;;;;;;;10.00;5.20;;;;;;;;;;5034329;28;20207;-84
2022/05/18 05:15:19;;;;;;;10.13;6.07;;;;;;;;;;5041780;28;20231;-84
2022/05/18 05:17:46;;;;;;;14.33;6.40;;;;;;;;;;5033907;28;20222;-84
2022/05/18 05:20:14;;;;;;;10.07;6.60;;;;;;;;;;5034809;28;20234;-84
2022/05/18 05:22:41;;;;;;;11.17;7.03;;;;;;;;;;5035830;28;20603;-84
2022/05/18 05:25:10;;;;;;;14.57;7.20;;;;;;;;;;5034061;28;20257;-84
2022/05/18 05:27:37;;;;;;;12.70;7.40;;;;;;;;;;5035219;28;20203;-84
2022/05/18 05:30:04;;;;;;;11.43;7.73;;;;;;;;;;5034382;28;20241;-84
2022/05/18 05:32:31;;;;;;;11.47;8.80;;;;;;;;;;5035001;28;20215;-84
2022/05/18 05:34:58;;;;;;;11.60;8.33;;;;;;;;;;5033867;28;20243;-84
2022/05/18 05:37:25;;;;;;;9.60;8.07;;;;;;;;;;5034871;28;20209;-84
2022/05/18 05:39:53;;;;;;;7.67;6.93;;;;;;;;;;5034574;28;20241;-85
2022/05/18 05:42:21;;;;;;;18.07;9.83;;;;;;;;;;5035105;28;20217;-85
2022/05/18 05:44:48;;;;;;;10.93;7.40;;;;;;;;;;5034190;28;20235;-85
2022/05/18 05:47:15;;;;;;;15.57;7.80;;;;;;;;;;5036624;28;20210;-85
2022/05/18 05:49:42;;;;;;;11.17;7.77;;;;;;;;;;5035078;28;20242;-84
2022/05/18 05:52:10;;;;;;;13.60;7.47;;;;;;;;;;5036072;28;20644;-86
2022/05/18 05:54:37;;;;;;;10.07;7.07;;;;;;;;;;5034131;28;20729;-85
2022/05/18 05:57:04;;;;;;;10.43;6.60;;;;;;;;;;5034913;28;20553;-85
2022/05/18 05:59:33;;;;;;;7.77;6.97;;;;;;;;;;5034571;28;20757;-83
2022/05/18 06:02:01;;;;;;;8.33;6.13;;;;;;;;;;5035037;28;20211;-83
2022/05/18 06:04:30;;;;;;;8.53;6.27;;;;;;;;;;5033917;28;20233;-83
2022/05/18 06:06:57;;;;;;;11.57;6.30;;;;;;;;;;5034771;28;20233;-84
2022/05/18 06:09:24;;;;;;;9.47;5.77;;;;;;;;;;5034209;28;20253;-84
2022/05/18 06:11:51;;;;;;;9.07;6.07;;;;;;;;;;5034969;28;20232;-84
2022/05/18 06:14:19;;;;;;;8.40;6.10;;;;;;;;;;5032793;28;20239;-83
2022/05/18 06:16:47;;;;;;;6.53;5.70;;;;;;;;;;5034326;28;20209;-83
2022/05/18 06:19:14;;;;;;;10.67;6.60;;;;;;;;;;5041729;28;20721;-83
2022/05/18 06:21:41;;;;;;;9.67;6.10;;;;;;;;;;5034658;28;20434;-84
2022/05/18 06:24:09;;;;;;;9.10;6.83;;;;;;;;;;5034211;28;20233;-84
2022/05/18 06:26:36;;;;;;;7.47;6.03;;;;;;;;;;5034648;28;20206;-84
2022/05/18 06:29:04;;;;;;;9.60;5.20;;;;;;;;;;5034140;28;20238;-84
2022/05/18 06:31:31;;;;;;;5.83;5.30;;;;;;;;;;5035021;28;20225;-84
2022/05/18 06:33:59;;;;;;;9.57;6.20;;;;;;;;;;5034064;28;20246;-84
2022/05/18 06:36:27;;;;;;;9.60;5.65;;;;;;;;;;5034110;28;20214;-84
2022/05/18 06:38:54;;;;;;;8.00;6.35;;;;;;;;;;5033907;28;20238;-84
2022/05/18 06:41:24;;;;;;;6.50;5.78;;;;;;;;;;5034293;28;20207;-84
2022/05/18 06:43:52;;;;;;;10.70;5.32;;;;;;;;;;5033968;28;20226;-84
2022/05/18 06:46:19;;;;;;;5.80;4.95;;;;;;;;;;5033876;28;20215;-84
2022/05/18 06:48:47;;;;;;;7.63;5.18;;;;;;;;;;5033052;28;20245;-84
2022/05/18 06:51:17;;;;;;;7.25;4.90;;;;;;;;;;5033563;28;20202;-84
2022/05/18 06:53:44;;;;;;;7.97;5.05;;;;;;;;;;5032581;28;20239;-84
2022/05/18 06:56:11;;;;;;;7.30;4.68;;;;;;;;;;5035189;28;20226;-84
2022/05/18 06:58:38;;;;;;;4.72;4.10;;;;;;;;;;5034011;28;20266;-84
2022/05/18 07:01:07;;;;;;;10.10;4.00;;;;;;;;;;5034407;28;20218;-84
2022/05/18 07:03:34;;;;;;;3.92;3.45;;;;;;;;;;5033093;28;20234;-84
2022/05/18 07:06:01;;;;;;;4.75;3.53;;;;;;;;;;5033132;28;20237;-84
2022/05/18 07:08:29;;;;;;;5.32;3.65;;;;;;;;;;5032904;28;20234;-84
2022/05/18 07:10:57;;;;;;;6.35;3.53;;;;;;;;;;5033306;28;20207;-84
2022/05/18 07:13:24;;;;;;;5.10;3.28;;;;;;;;;;5032501;28;20230;-84
2022/05/18 07:15:51;;;;;;;3.85;3.22;;;;;;;;;;5033293;28;20612;-84
2022/05/18 07:18:19;;;;;;;5.80;3.38;;;;;;;;;;5032491;28;20720;-84
2022/05/18 07:20:46;;;;;;;5.60;3.30;;;;;;;;;;5033024;28;20202;-84
2022/05/18 07:23:13;;;;;;;4.13;2.97;;;;;;;;;;5032274;28;20240;-84
2022/05/18 07:25:42;;;;;;;4.43;2.88;;;;;;;;;;5032976;28;20238;-85
2022/05/18 07:28:10;;;;;;;5.78;3.03;;;;;;;;;;5032684;28;20249;-85
2022/05/18 07:30:37;;;;;;;3.90;2.92;;;;;;;;;;5032943;28;20584;-85
2022/05/18 07:33:04;;;;;;;3.40;2.67;;;;;;;;;;5033355;28;20214;-86
2022/05/18 07:35:31;;;;;;;3.38;2.47;;;;;;;;;;5034411;28;20237;-85
2022/05/18 07:37:58;;;;;;;4.20;2.45;;;;;;;;;;5034506;28;20233;-85
2022/05/18 07:40:26;;;;;;;2.70;2.50;;;;;;;;;;5035367;28;20206;-85
2022/05/18 07:42:56;;;;;;;3.05;2.50;;;;;;;;;;5034486;28;20229;-85
2022/05/18 07:45:23;;;;;;;3.47;2.83;;;;;;;;;;5033712;28;20198;-85
2022/05/18 07:47:52;;;;;;;6.32;2.30;;;;;;;;;;5032390;28;20733;-86
2022/05/18 07:50:19;;;;;;;3.40;2.60;;;;;;;;;;5032538;28;20207;-85
2022/05/18 07:52:46;;;;;;;5.05;2.40;;;;;;;;;;5032402;28;20718;-85
2022/05/18 07:55:14;;;;;;;4.70;2.50;;;;;;;;;;5032045;28;20234;-86
2022/05/18 07:57:41;;;;;;;2.67;2.47;;;;;;;;;;5032296;28;20210;-85
2022/05/18 08:00:10;;;;;;;2.78;2.47;;;;;;;;;;5033020;28;20231;-85
2022/05/18 08:02:37;;;;;;;2.75;2.50;;;;;;;;;;5034102;28;20211;-85
2022/05/18 08:05:05;;;;;;;2.95;2.30;;;;;;;;;;5031621;28;20706;-86
2022/05/18 08:07:32;;;;;;;2.60;2.40;;;;;;;;;;5032158;28;20632;-85
2022/05/18 08:15:30;;;;;;;3.65;2.30;;;;;;;;;;5031318;28;20234;-85
2022/05/18 08:17:57;;;;;;;4.38;2.65;;;;;;;;;;5031471;28;20262;-85
2022/05/18 08:20:25;;;;;;;4.68;2.33;;;;;;;;;;5031904;28;20214;-86
2022/05/18 08:22:52;;;;;;;2.33;2.17;;;;;;;;;;5031397;28;20700;-85
2022/05/18 08:25:19;;;;;;;4.43;2.50;;;;;;;;;;5031425;28;20205;-86
2022/05/18 08:27:47;;;;;;;2.60;2.20;;;;;;;;;;5031632;28;20241;-85
2022/05/18 08:30:16;;;;;;;2.03;1.85;;;;;;;;;;5031398;28;20237;-84
2022/05/18 08:32:45;;;;;;;3.67;2.50;;;;;;;;;;5032312;28;20199;-86
2022/05/18 08:35:14;;;;;;;2.63;2.17;;;;;;;;;;5031087;28;20242;-85
2022/05/18 08:37:41;;;;;;;4.85;2.33;;;;;;;;;;5034970;28;20242;-85
2022/05/18 08:40:13;;;;;;;3.17;2.20;;;;;;;;;;5034607;28;20234;-86
2022/05/18 08:42:41;;;;;;;2.35;2.15;;;;;;;;;;5035615;28;20229;-86
2022/05/18 08:45:09;;;;;;;2.65;2.28;;;;;;;;;;5034851;28;20237;-85
2022/05/18 08:47:41;;;;;;;2.97;2.17;;;;;;;;;;5035355;28;20218;-86
2022/05/18 08:50:12;;;;;;;2.60;2.40;;;;;;;;;;5034593;28;20257;-86
2022/05/18 08:52:53;;;;;;;2.70;2.45;;;;;;;;;;5035456;28;20293;-86
2022/05/18 08:55:36;;;;;;;3.33;2.25;;;;;;;;;;5034599;28;20601;-84
2022/05/18 08:58:04;;;;;;;3.95;2.45;;;;;;;;;;5034523;28;20643;-85
2022/05/18 09:00:34;;;;;;;2.70;1.98;;;;;;;;;;5035366;28;20187;-85
2022/05/18 09:03:05;;;;;;;2.47;2.28;;;;;;;;;;5034341;28;20202;-85
2022/05/18 09:05:37;;;;;;;3.22;2.30;;;;;;;;;;5034723;28;20628;-86
2022/05/18 09:08:06;;;;;;;3.15;2.08;;;;;;;;;;5034857;28;20241;-85
2022/05/18 09:10:37;;;;;;;3.53;2.00;;;;;;;;;;5035745;28;20218;-85
2022/05/18 09:13:04;;;;;;;4.80;2.17;;;;;;;;;;5034192;28;20762;-86
2022/05/18 09:15:36;;;;;;;3.20;1.90;;;;;;;;;;5034547;28;20227;-85
2022/05/18 09:18:06;;;;;;;3.13;2.10;;;;;;;;;;5034088;28;20226;-85
2022/05/18 09:20:37;;;;;;;3.13;2.03;;;;;;;;;;5034946;28;20206;-85
2022/05/18 09:23:21;;;;;;;2.38;1.60;;;;;;;;;;5033985;28;20651;-87
2022/05/18 09:25:54;;;;;;;2.20;2.00;;;;;;;;;;5034451;28;20206;-85
2022/05/18 09:28:27;;;;;;;2.78;2.10;;;;;;;;;;5034316;28;20245;-86
2022/05/18 09:31:00;;;;;;;2.00;1.80;;;;;;;;;;5034907;28;20199;-86
2022/05/18 09:33:33;;;;;;;2.40;2.20;;;;;;;;;;5033839;28;20755;-85
2022/05/18 09:36:20;;;;;;;2.00;1.80;;;;;;;;;;5034676;28;20231;-85
2022/05/18 09:38:51;;;;;;;2.83;1.88;;;;;;;;;;5033515;28;20730;-86
2022/05/18 09:41:20;;;;;;;2.72;2.03;;;;;;;;;;5034487;28;20245;-86
2022/05/18 09:43:49;;;;;;;1.75;1.65;;;;;;;;;;5033443;28;20609;-85
2022/05/18 09:46:18;;;;;;;2.00;1.80;;;;;;;;;;5033588;28;20206;-86
2022/05/18 09:48:51;;;;;;;2.75;1.90;;;;;;;;;;5033788;28;20235;-86
2022/05/18 09:51:20;;;;;;;1.85;1.75;;;;;;;;;;5034053;28;20234;-86
2022/05/18 09:53:47;;;;;;;2.85;1.90;;;;;;;;;;5032880;28;20732;-85
2022/05/18 09:56:16;;;;;;;1.75;1.60;;;;;;;;;;5033344;28;20226;-85
2022/05/18 09:58:46;;;;;;;1.73;1.63;;;;;;;;;;5033151;28;20234;-85
2022/05/18 10:09:40;;;;;;;1.90;1.55;;;;;;;;;;5033150;28;20749;-85
2022/05/18 10:12:12;;;;;;;3.58;1.55;;;;;;;;;;5033573;28;20285;-86
2022/05/18 10:14:40;;;;;;;2.97;2.00;;;;;;;;;;5032507;28;20262;-85
2022/05/18 10:17:08;;;;;;;1.95;1.67;;;;;;;;;;5033181;28;20230;-86
2022/05/18 10:19:37;;;;;;;3.85;1.98;;;;;;;;;;5032522;28;20698;-85
2022/05/18 10:22:07;;;;;;;3.10;1.95;;;;;;;;;;5033890;28;20210;-87
2022/05/18 10:24:37;;;;;;;2.55;1.50;;;;;;;;;;5032694;28;20625;-86
2022/05/18 10:27:09;;;;;;;3.88;1.75;;;;;;;;;;5033806;28;20195;-86
2022/05/18 10:29:36;;;;;;;2.28;1.90;;;;;;;;;;5032494;28;20234;-87
2022/05/18 10:32:05;;;;;;;2.67;1.52;;;;;;;;;;5032893;28;20214;-86
2022/05/18 10:34:34;;;;;;;2.45;1.90;;;;;;;;;;5032307;28;20234;-85
2022/05/18 10:37:03;;;;;;;1.88;1.73;;;;;;;;;;5032734;28;20230;-86
2022/05/18 10:39:33;;;;;;;4.05;1.80;;;;;;;;;;5032333;28;20710;-86
2022/05/18 10:42:00;;;;;;;2.00;1.80;;;;;;;;;;5033132;28;20195;-85
2022/05/18 10:44:31;;;;;;;2.00;1.80;;;;;;;;;;5032050;28;20257;-87
2022/05/18 10:47:10;;;;;;;2.10;1.77;;;;;;;;;;5032780;28;20564;-86
2022/05/18 10:49:38;;;;;;;1.73;1.63;;;;;;;;;;5032220;28;20234;-85
2022/05/18 10:52:11;;;;;;;2.85;1.65;;;;;;;;;;5032604;28;20206;-86
2022/05/18 10:54:40;;;;;;;2.58;1.50;;;;;;;;;;5032187;28;20237;-86
2022/05/18 10:57:12;;;;;;;2.40;1.60;;;;;;;;;;5032144;28;20249;-86
2022/05/18 10:59:44;;;;;;;3.15;1.85;;;;;;;;;;5031529;28;20597;-86
2022/05/18 11:02:14;;;;;;;2.08;1.90;;;;;;;;;;5032351;28;20802;-86
2022/05/18 11:04:51;;;;;;;3.13;2.00;;;;;;;;;;5031683;28;20237;-86
2022/05/18 11:07:18;;;;;;;2.28;2.08;;;;;;;;;;5032661;28;20206;-87
2022/05/18 11:09:47;;;;;;;4.93;1.60;;;;;;;;;;5031849;28;20248;-85
2022/05/18 11:12:17;;;;;;;2.22;1.80;;;;;;;;;;5032648;28;20202;-88
2022/05/18 11:14:48;;;;;;;2.15;1.90;;;;;;;;;;5031759;28;20431;-86
2022/05/18 11:17:23;;;;;;;2.45;1.48;;;;;;;;;;5032455;28;20209;-86
2022/05/18 11:19:51;;;;;;;1.90;1.58;;;;;;;;;;5031890;28;20849;-85
2022/05/18 11:22:24;;;;;;;1.88;1.63;;;;;;;;;;5032957;28;20206;-87
2022/05/18 11:24:58;;;;;;;2.22;1.83;;;;;;;;;;5032156;28;20234;-87
2022/05/18 11:27:29;;;;;;;2.17;1.45;;;;;;;;;;5032853;28;20204;-86
2022/05/18 11:30:03;;;;;;;2.47;1.70;;;;;;;;;;5031966;28;20244;-85
2022/05/18 11:32:33;;;;;;;1.55;1.30;;;;;;;;;;5032667;28;20268;-87
2022/05/18 11:35:04;;;;;;;2.83;1.45;;;;;;;;;;5031540;28;20240;-87
2022/05/18 11:37:38;;;;;;;3.72;1.70;;;;;;;;;;5032469;28;20217;-86
2022/05/18 11:40:11;;;;;;;1.40;1.30;;;;;;;;;;5031915;28;20243;-86
2022/05/18 11:42:42;;;;;;;1.92;1.42;;;;;;;;;;5032700;28;20205;-86
2022/05/18 11:45:14;;;;;;;3.60;1.95;;;;;;;;;;5031832;28;20238;-87
2022/05/18 11:47:54;;;;;;;2.03;1.40;;;;;;;;;;5032236;28;20183;-86
2022/05/18 11:50:29;;;;;;;2.33;1.63;;;;;;;;;;5031890;28;20228;-85
2022/05/18 11:53:08;;;;;;;1.70;1.60;;;;;;;;;;5033205;28;20257;-86
2022/05/18 11:55:41;;;;;;;3.22;2.38;;;;;;;;;;5032364;28;20197;-85
2022/05/18 11:58:13;;;;;;;2.03;1.48;;;;;;;;;;5056903;23;20460;-87
2022/05/18 12:00:50;;;;;;;3.53;1.60;;;;;;;;;;5060250;28;20198;-87
2022/05/18 12:03:36;;;;;;;1.40;1.30;;;;;;;;;;5031926;28;20244;-87
2022/05/18 12:06:12;;;;;;;3.00;1.60;;;;;;;;;;5031457;28;20276;-87
2022/05/18 12:08:49;;;;;;;5.30;1.92;;;;;;;;;;5031705;28;20279;-87
2022/05/18 12:11:21;;;;;;;1.38;1.20;;;;;;;;;;5032804;28;20214;-87
2022/05/18 12:13:55;;;;;;;1.75;1.60;;;;;;;;;;5035176;28;20361;-88
2022/05/18 12:16:28;;;;;;;1.40;1.30;;;;;;;;;;5035614;28;20198;-88
2022/05/18 12:18:59;;;;;;;3.25;1.55;;;;;;;;;;5035389;28;20241;-87
2022/05/18 12:21:29;;;;;;;2.28;1.30;;;;;;;;;;5036073;28;20194;-87
2022/05/18 12:24:01;;;;;;;1.67;1.55;;;;;;;;;;5035384;28;20572;-87
2022/05/18 12:26:31;;;;;;;3.05;1.58;;;;;;;;;;5035712;28;20261;-87
2022/05/18 12:28:58;;;;;;;2.08;1.30;;;;;;;;;;5035444;28;20264;-87
2022/05/18 12:31:26;;;;;;;2.28;1.50;;;;;;;;;;5035755;28;20217;-88
2022/05/18 12:33:57;;;;;;;1.65;1.30;;;;;;;;;;5035065;28;20265;-87
2022/05/18 12:36:25;;;;;;;1.30;1.20;;;;;;;;;;5044533;28;20202;-87
2022/05/18 12:38:55;;;;;;;2.40;1.70;;;;;;;;;;5051919;28;20236;-85
2022/05/18 12:41:26;;;;;;;1.30;1.20;;;;;;;;;;5054750;28;20202;-84
2022/05/18 12:44:01;;;;;;;1.92;1.40;;;;;;;;;;5047935;28;20265;-86
2022/05/18 12:46:29;;;;;;;1.48;1.30;;;;;;;;;;5054873;28;20225;-86
2022/05/18 12:48:59;;;;;;;1.38;1.27;;;;;;;;;;5054337;28;20284;-86
2022/05/18 12:51:36;;;;;;;1.50;1.40;;;;;;;;;;5055285;28;20692;-86
2022/05/18 12:54:17;;;;;;;1.50;1.40;;;;;;;;;;5054466;28;20249;-85
2022/05/18 12:57:03;;;;;;;1.85;1.33;;;;;;;;;;5055429;28;20186;-86
2022/05/18 12:59:45;;;;;;;1.80;1.50;;;;;;;;;;5053982;28;20233;-85
2022/05/18 13:02:20;;;;;;;1.55;1.35;;;;;;;;;;5054874;28;20255;-85
2022/05/18 13:04:48;;;;;;;2.10;1.40;;;;;;;;;;5054810;28;20302;-86
2022/05/18 13:07:25;;;;;;;2.05;1.30;;;;;;;;;;5055205;28;20731;-86
2022/05/18 13:10:01;;;;;;;1.73;1.40;;;;;;;;;;5054677;28;20268;-84
2022/05/18 13:12:32;;;;;;;1.52;1.42;;;;;;;;;;5055194;28;20213;-84
2022/05/18 13:15:02;;;;;;;1.67;1.30;;;;;;;;;;5053806;28;20237;-87
2022/05/18 13:17:42;;;;;;;1.38;1.27;;;;;;;;;;5054685;28;20607;-87
2022/05/18 13:20:29;;;;;;;1.88;1.40;;;;;;;;;;5052861;28;20676;-87
2022/05/18 13:23:01;;;;;;;2.50;1.40;;;;;;;;;;5053772;28;20189;-87
2022/05/18 13:25:30;;;;;;;1.50;1.40;;;;;;;;;;5053763;28;20205;-87
2022/05/18 13:27:57;;;;;;;2.72;1.38;;;;;;;;;;5052890;28;20225;-87
2022/05/18 13:30:34;;;;;;;2.08;1.40;;;;;;;;;;5053164;28;20213;-87
2022/05/18 13:33:02;;;;;;;2.35;1.52;;;;;;;;;;5053108;28;20557;-87
2022/05/18 13:35:30;;;;;;;2.20;1.38;;;;;;;;;;5053843;28;20244;-87
2022/05/18 13:38:06;;;;;;;2.22;1.25;;;;;;;;;;5053417;28;20213;-87
2022/05/18 13:40:35;;;;;;;7.13;1.85;;;;;;;;;;5054860;28;20256;-87
2022/05/18 13:43:03;;;;;;;3.67;2.00;;;;;;;;;;5054125;28;20209;-87
2022/05/18 13:45:33;;;;;;;3.65;1.60;;;;;;;;;;5054487;28;20216;-87
2022/05/18 13:48:00;;;;;;;1.65;1.10;;;;;;;;;;5053210;28;20256;-87
2022/05/18 13:50:28;;;;;;;1.52;1.42;;;;;;;;;;5054215;28;20700;-88
2022/05/18 13:52:57;;;;;;;1.85;1.70;;;;;;;;;;5053970;28;20248;-87
2022/05/18 13:55:25;;;;;;;1.45;1.35;;;;;;;;;;5053875;28;20216;-87
2022/05/18 13:57:55;;;;;;;1.52;1.35;;;;;;;;;;5052915;28;20205;-86
2022/05/18 14:00:26;;;;;;;1.55;1.42;;;;;;;;;;5053634;28;20205;-88
2022/05/18 14:02:56;;;;;;;1.10;1.10;;;;;;;;;;5048027;28;20199;-87
2022/05/18 14:05:23;;;;;;;2.35;1.30;;;;;;;;;;5034157;28;20222;-88
2022/05/18 14:07:52;;;;;;;2.05;1.42;;;;;;;;;;5039510;28;20909;-88
2022/05/18 14:10:21;;;;;;;1.52;1.42;;;;;;;;;;5049415;28;20212;-88
2022/05/18 14:12:48;;;;;;;0.93;0.93;;;;;;;;;;5033822;28;20210;-87
2022/05/18 14:15:16;;;;;;;2.05;1.65;;;;;;;;;;5045101;28;20232;-87
2022/05/18 14:17:43;;;;;;;2.78;1.58;;;;;;;;;;5053125;28;20284;-86
2022/05/18 14:20:19;;;;;;;1.83;1.33;;;;;;;;;;5052885;28;20266;-86
2022/05/18 14:22:48;;;;;;;6.82;1.63;;;;;;;;;;5055820;28;20209;-87
2022/05/18 14:25:16;;;;;;;2.42;1.42;;;;;;;;;;5054918;28;20229;-87
2022/05/18 14:27:44;;;;;;;2.55;1.60;;;;;;;;;;5054289;28;20238;-87
2022/05/18 14:30:23;;;;;;;2.50;1.35;;;;;;;;;;5063314;28;20233;-87
2022/05/18 14:32:52;;;;;;;1.52;1.42;;;;;;;;;;5055481;28;20209;-88
2022/05/18 14:35:22;;;;;;;1.52;1.25;;;;;;;;;;5052144;28;20205;-87
2022/05/18 14:37:51;;;;;;;1.98;1.38;;;;;;;;;;5052188;28;20201;-87
2022/05/18 14:40:20;;;;;;;1.58;1.30;;;;;;;;;;5052809;28;20221;-87
2022/05/18 14:42:51;;;;;;;1.50;1.40;;;;;;;;;;5052747;28;20212;-87
2022/05/18 14:45:21;;;;;;;1.42;1.30;;;;;;;;;;5052157;28;20218;-87
2022/05/18 14:47:49;;;;;;;1.58;1.27;;;;;;;;;;5053349;28;20222;-87
2022/05/18 14:50:17;;;;;;;7.50;1.38;;;;;;;;;;5052857;28;20657;-87
2022/05/18 14:52:52;;;;;;;1.60;1.50;;;;;;;;;;5053264;28;20214;-87
2022/05/18 14:55:22;;;;;;;2.65;1.77;;;;;;;;;;5062905;28;20227;-88
2022/05/18 14:57:49;;;;;;;2.05;1.40;;;;;;;;;;5074081;28;20221;-87
2022/05/18 15:00:20;;;;;;;1.77;1.40;;;;;;;;;;5074254;28;20216;-87
2022/05/18 15:02:50;;;;;;;1.40;1.30;;;;;;;;;;5074868;28;20213;-87
2022/05/18 15:05:19;;;;;;;1.45;1.30;;;;;;;;;;5071637;28;20233;-87
2022/05/18 15:07:48;;;;;;;2.92;1.13;;;;;;;;;;5035741;28;20230;-87
2022/05/18 15:10:19;;;;;;;1.70;1.60;;;;;;;;;;5052492;28;20214;-87
2022/05/18 15:12:49;;;;;;;1.80;1.70;;;;;;;;;;5052376;28;20583;-86
2022/05/18 15:15:23;;;;;;;4.05;1.60;;;;;;;;;;5052025;28;20228;-86